Bookmark and Share
Track history (hours):
 

Jay Michael

More information available from US FCC via Universal Licensing System and Coast Guard Vessel Documentation Center.

Last reported at 2014-Apr-10 20:19 UTC. Time now 2014-Apr-20 00:45 UTC.
Position N 34°22' W 076°36'.
Warning: this ship's position is 9 days out of date.

Length 21 m.

Type: Tug. MMSI: 367110280.

NotesDate/timePositionNaut miles runAvg speedWind from/ knotsBaromVisibWave heightAir tempDewpointWater temp
2014-Apr-10 20:19N 34°22' W 076°36'7 8.8
2014-Apr-10 19:33N 34°26' W 076°29'9 8.8
2014-Apr-10 18:32N 34°32' W 076°21'318 8.4
2014-Apr-09 04:33N 39°33' W 074°11'8 8.4
2014-Apr-09 03:33N 39°40' W 074°06'8 8.3
2014-Apr-09 02:33N 39°48' W 074°02'21 8.5
2014-Apr-09 00:04N 40°09' W 073°57'8 8.6
2014-Apr-08 23:06N 40°17' W 073°55'6 8.7
2014-Apr-08 22:25N 40°23' W 073°54'8 8.0
2014-Apr-08 21:27N 40°30' W 073°58'7 8.1
2014-Apr-08 20:33N 40°36' W 074°03'4 0.9
2014-Apr-08 16:07N 40°39' W 074°07'2 3.8
2014-Apr-08 15:33N 40°38' W 074°09'0 0.0
2014-Apr-08 14:33N 40°38' W 074°09'0 0.0
2014-Apr-08 13:34N 40°38' W 074°09'0 0.0
2014-Apr-08 12:33N 40°38' W 074°09'0 0.0
2014-Apr-08 11:34N 40°38' W 074°09'0 0.0
2014-Apr-08 10:33N 40°38' W 074°09'0 0.0
2014-Apr-08 09:33N 40°38' W 074°09'0 0.0
2014-Apr-08 08:34N 40°38' W 074°09'0 0.0
2014-Apr-08 07:34N 40°38' W 074°09'0 0.0
2014-Apr-08 06:33N 40°38' W 074°09'0 0.0
2014-Apr-08 05:33N 40°38' W 074°09'0 0.0
2014-Apr-08 04:34N 40°38' W 074°09'0 0.0
2014-Apr-08 03:34N 40°38' W 074°09'0 0.0
2014-Apr-08 02:33N 40°38' W 074°09'0 0.0
2014-Apr-08 01:34N 40°38' W 074°09'0 0.0
2014-Apr-08 00:33N 40°38' W 074°09'0 0.0
2014-Apr-07 23:33N 40°38' W 074°09'0 0.0
2014-Apr-07 22:34N 40°38' W 074°09'0 0.0
2014-Apr-07 21:34N 40°38' W 074°09'2 1.9
2014-Apr-07 20:32N 40°38' W 074°12'2 2.3
2014-Apr-07 19:32N 40°39' W 074°09'1 0.4
2014-Apr-07 17:34N 40°38' W 074°09'0 0.0
2014-Apr-07 16:33N 40°38' W 074°09'0 0.0
2014-Apr-07 15:34N 40°38' W 074°09'0 0.0
2014-Apr-07 14:33N 40°38' W 074°09'3 2.9
2014-Apr-07 13:34N 40°39' W 074°06'7 7.2
2014-Apr-07 12:33N 40°43' W 073°58'7 6.9
2014-Apr-07 11:33N 40°48' W 073°51'5 5.2
2014-Apr-07 10:33N 40°51' W 073°46'6 5.8
2014-Apr-07 09:33N 40°55' W 073°40'6 6.1
2014-Apr-07 08:33N 40°58' W 073°33'6 6.2
2014-Apr-07 07:33N 41°01' W 073°26'6 6.2
2014-Apr-07 06:33N 41°03' W 073°18'6 6.1
2014-Apr-07 05:33N 41°05' W 073°11'6 6.2
2014-Apr-07 04:33N 41°09' W 073°04'6 6.4
2014-Apr-07 03:33N 41°13' W 072°57'5 5.2
2014-Apr-07 02:33N 41°17' W 072°55'0 0.0
2014-Apr-07 01:33N 41°17' W 072°55'0 0.0
2014-Apr-07 00:33N 41°17' W 072°55'0 0.0
2014-Apr-06 23:33N 41°17' W 072°55'0 0.0
2014-Apr-06 22:33N 41°17' W 072°55'0 0.0
2014-Apr-06 21:33N 41°17' W 072°55'0 0.0
2014-Apr-06 20:33N 41°17' W 072°55'0 0.0
2014-Apr-06 19:34N 41°17' W 072°55'0 0.0
2014-Apr-06 18:33N 41°17' W 072°55'0 0.0
2014-Apr-06 17:33N 41°17' W 072°55'2 2.1
2014-Apr-06 16:33N 41°15' W 072°55'2 2.0
2014-Apr-06 15:33N 41°17' W 072°55'0 0.0
2014-Apr-06 12:19N 41°17' W 072°55'0 0.0
2014-Apr-06 11:17N 41°17' W 072°55'1 1.5
2014-Apr-06 10:30N 41°16' W 072°55'1 1.1
2014-Apr-06 09:18N 41°17' W 072°54'2 3.0
2014-Apr-06 08:33N 41°15' W 072°55'2 1.9
2014-Apr-06 07:26N 41°17' W 072°55'2 1.1
2014-Apr-06 05:33N 41°15' W 072°55'0 0.0
2014-Apr-06 04:31N 41°15' W 072°55'0 0.0
2014-Apr-06 03:15N 41°15' W 072°55'0 0.0
2014-Apr-06 02:05N 41°15' W 072°55'0 0.0
2014-Apr-06 01:33N 41°15' W 072°55'0 0.4
2014-Apr-06 00:21N 41°16' W 072°55'0 0.3
2014-Apr-05 23:33N 41°16' W 072°55'0 0.2
2014-Apr-05 22:29N 41°16' W 072°55'1 1.2
2014-Apr-05 21:28N 41°17' W 072°55'0 0.0
2014-Apr-05 18:24N 41°17' W 072°55'0 0.1
2014-Apr-05 17:21N 41°17' W 072°55'2 2.7
2014-Apr-05 16:33N 41°15' W 072°55'2 2.0
2014-Apr-05 15:25N 41°17' W 072°55'0 0.2
2014-Apr-05 14:09N 41°17' W 072°54'2 3.9
2014-Apr-05 13:33N 41°15' W 072°55'2 1.8
2014-Apr-05 12:14N 41°17' W 072°54'0 0.0
2014-Apr-05 11:30N 41°17' W 072°54'1 1.3
2014-Apr-05 10:32N 41°16' W 072°55'1 1.3
2014-Apr-05 09:33N 41°17' W 072°54'0 0.2
2014-Apr-05 08:31N 41°17' W 072°55'0 0.0
2014-Apr-05 07:25N 41°17' W 072°55'0 0.0
2014-Apr-05 06:22N 41°17' W 072°55'0 0.2
2014-Apr-05 04:30N 41°17' W 072°55'2 2.0
2014-Apr-05 03:33N 41°15' W 072°55'0 0.0
2014-Apr-05 02:33N 41°15' W 072°55'1 0.8
2014-Apr-05 01:33N 41°14' W 072°55'0 0.2
2014-Apr-05 00:33N 41°14' W 072°55'1 0.8
2014-Apr-04 23:33N 41°15' W 072°55'1 0.6
2014-Apr-04 22:33N 41°15' W 072°55'0 0.4
2014-Apr-04 21:32N 41°15' W 072°55'0 0.1
2014-Apr-04 20:33N 41°15' W 072°55'2 1.9
2014-Apr-04 19:24N 41°17' W 072°55'0 0.0
2014-Apr-04 18:33N 41°17' W 072°55'2 2.4
2014-Apr-04 17:33N 41°15' W 072°55'2 1.8
2014-Apr-04 16:13N 41°17' W 072°55'0 0.0
2014-Apr-04 15:29N 41°17' W 072°55'1 1.1
2014-Apr-04 14:19N 41°16' W 072°55'4 5.7
2014-Apr-04 13:33N 41°12' W 072°55'2 2.2
2014-Apr-04 12:33N 41°10' W 072°54'5 4.8
2014-Apr-04 11:33N 41°14' W 072°55'3 3.0
2014-Apr-04 10:33N 41°17' W 072°55'2 2.3
2014-Apr-04 09:32N 41°15' W 072°55'4 4.4
2014-Apr-04 08:33N 41°11' W 072°54'0 0.2
2014-Apr-04 07:33N 41°11' W 072°54'4 4.3
2014-Apr-04 06:33N 41°15' W 072°55'0 0.2
2014-Apr-04 05:22N 41°15' W 072°55'0 0.0
2014-Apr-04 04:33N 41°15' W 072°55'0 0.0
2014-Apr-04 03:32N 41°15' W 072°55'0 0.0
2014-Apr-04 02:21N 41°15' W 072°55'0 0.0
2014-Apr-04 01:33N 41°15' W 072°55'0 0.0
2014-Apr-04 00:33N 41°15' W 072°55'0 0.0
2014-Apr-03 23:31N 41°15' W 072°55'2 2.3
2014-Apr-03 22:31N 41°17' W 072°55'4 3.9
2014-Apr-03 21:33N 41°14' W 072°55'5 5.0
2014-Apr-03 20:33N 41°09' W 072°54'4 3.7
2014-Apr-03 19:33N 41°12' W 072°54'3 2.9
2014-Apr-03 18:33N 41°15' W 072°55'2 2.2
2014-Apr-03 17:33N 41°17' W 072°55'0 0.0
2014-Apr-03 16:33N 41°17' W 072°55'1 1.3
2014-Apr-03 15:29N 41°16' W 072°55'7 7.0
2014-Apr-03 14:33N 41°10' W 072°53'2 2.3
2014-Apr-03 13:34N 41°12' W 072°54'3 3.3
2014-Apr-03 12:33N 41°15' W 072°55'2 2.5
2014-Apr-03 11:33N 41°12' W 072°56'0 0.3
2014-Apr-03 10:27N 41°13' W 072°56'1 1.5
2014-Apr-03 09:33N 41°12' W 072°54'4 3.4
2014-Apr-03 08:27N 41°09' W 072°53'3 3.0
2014-Apr-03 07:33N 41°11' W 072°54'4 3.6
2014-Apr-03 06:28N 41°15' W 072°55'2 2.2
2014-Apr-03 05:29N 41°17' W 072°55'0 0.2
2014-Apr-03 04:33N 41°17' W 072°54'0 0.0
2014-Apr-03 03:33N 41°17' W 072°54'0 0.0
2014-Apr-03 02:33N 41°17' W 072°54'0 0.0
2014-Apr-03 01:29N 41°17' W 072°54'0 0.0
2014-Apr-03 00:33N 41°17' W 072°54'0 0.0
2014-Apr-02 23:33N 41°17' W 072°54'2 1.6
2014-Apr-02 22:08N 41°15' W 072°55'3 5.3
2014-Apr-02 21:33N 41°12' W 072°54'3 2.8
2014-Apr-02 20:33N 41°09' W 072°53'5 5.1
2014-Apr-02 19:33N 41°14' W 072°55'3 3.2
2014-Apr-02 18:33N 41°17' W 072°54'0 0.0
2014-Apr-02 17:33N 41°17' W 072°54'2 2.2
2014-Apr-02 16:33N 41°15' W 072°55'0 0.2
2014-Apr-02 15:33N 41°15' W 072°55'0 0.2
2014-Apr-02 14:33N 41°15' W 072°55'0 0.1
2014-Apr-02 13:33N 41°15' W 072°55'0 0.2
2014-Apr-02 12:32N 41°15' W 072°55'0 0.0
2014-Apr-02 11:32N 41°15' W 072°55'1 0.7
2014-Apr-02 10:28N 41°16' W 072°55'1 1.2
2014-Apr-02 09:33N 41°15' W 072°55'0 0.3
2014-Apr-02 08:33N 41°15' W 072°55'0 0.0
2014-Apr-02 07:33N 41°15' W 072°55'0 0.0
2014-Apr-02 06:33N 41°15' W 072°55'0 0.0
2014-Apr-02 05:33N 41°15' W 072°55'0 0.0
2014-Apr-02 04:33N 41°15' W 072°55'0 0.2
2014-Apr-02 03:33N 41°15' W 072°55'0 0.2
2014-Apr-02 02:33N 41°15' W 072°55'0 0.0
2014-Apr-02 01:31N 41°15' W 072°55'0 0.2
2014-Apr-02 00:33N 41°16' W 072°55'1 0.8
2014-Apr-01 23:19N 41°17' W 072°55'1 0.8
2014-Apr-01 22:28N 41°16' W 072°55'0 0.4
2014-Apr-01 21:27N 41°16' W 072°55'0 0.1
2014-Apr-01 20:33N 41°16' W 072°55'0 0.0
2014-Apr-01 19:33N 41°16' W 072°55'0 0.4
2014-Apr-01 18:33N 41°15' W 072°55'1 0.9
2014-Apr-01 17:33N 41°16' W 072°55'2 0.9
2014-Apr-01 15:17N 41°18' W 072°54'3 3.8
2014-Apr-01 14:33N 41°15' W 072°55'0 0.3
2014-Apr-01 13:33N 41°16' W 072°55'0 0.0
2014-Apr-01 12:33N 41°16' W 072°55'2 1.7
2014-Apr-01 11:33N 41°17' W 072°55'0 0.2
2014-Apr-01 10:33N 41°17' W 072°54'2 1.0
2014-Apr-01 08:31N 41°15' W 072°55'0 0.3
2014-Apr-01 07:33N 41°15' W 072°55'0 0.5
2014-Apr-01 06:33N 41°16' W 072°55'0 0.0
2014-Apr-01 05:33N 41°16' W 072°55'0 0.0
2014-Apr-01 04:33N 41°16' W 072°55'0 0.0
2014-Apr-01 03:33N 41°16' W 072°55'0 0.2
2014-Apr-01 02:33N 41°16' W 072°55'0 0.2
2014-Apr-01 01:33N 41°16' W 072°55'0 0.0
2014-Apr-01 00:33N 41°16' W 072°55'0 0.0
2014-Mar-31 23:33N 41°16' W 072°55'0 0.0
2014-Mar-31 22:18N 41°16' W 072°55'0 0.0
2014-Mar-31 20:33N 41°16' W 072°55'  

Dump ship's entire track history

sailing weather and tide predictions

Jay Michael — WDD2051 — position and weather